createdAt,value
2023-04-16T00:00:03.803Z,8.16
2023-04-16T00:02:40.008Z,8.10
2023-04-16T00:05:10.942Z,8.18
2023-04-16T00:07:40.073Z,8.16
2023-04-16T00:10:09.918Z,8.05
2023-04-16T00:12:38.749Z,8.11
2023-04-16T00:15:08.331Z,8.12
2023-04-16T00:17:36.923Z,8.10
2023-04-16T00:20:06.720Z,8.11
2023-04-16T00:22:37.398Z,8.09
2023-04-16T00:25:07.182Z,8.01
2023-04-16T00:27:35.971Z,8.07
2023-04-16T00:30:05.018Z,7.98
2023-04-16T00:32:33.998Z,7.94
2023-04-16T00:35:03.327Z,7.92
2023-04-16T00:37:32.283Z,7.93
2023-04-16T00:40:02.622Z,7.93
2023-04-16T00:42:32.000Z,7.89
2023-04-16T00:45:00.820Z,7.93
2023-04-16T00:47:30.062Z,7.90
2023-04-16T00:49:59.154Z,7.83
2023-04-16T00:52:29.162Z,7.84
2023-04-16T00:54:58.677Z,7.86
2023-04-16T00:57:29.892Z,7.85
2023-04-16T00:59:59.331Z,7.89
2023-04-16T01:02:28.472Z,7.91
2023-04-16T01:04:57.575Z,7.97
2023-04-16T01:07:26.366Z,8.01
2023-04-16T01:09:55.386Z,8.02
2023-04-16T01:12:24.159Z,8.01
2023-04-16T01:14:56.233Z,8.04
2023-04-16T01:17:25.506Z,7.99
2023-04-16T01:19:54.360Z,8.04
2023-04-16T01:22:24.694Z,7.99
2023-04-16T01:24:53.962Z,7.96
2023-04-16T01:27:22.762Z,7.95
2023-04-16T01:29:51.717Z,7.95
2023-04-16T01:32:25.976Z,7.98
2023-04-16T01:34:54.875Z,7.97
2023-04-16T01:37:25.123Z,7.93
2023-04-16T01:39:54.204Z,7.92
2023-04-16T01:42:23.003Z,7.91
2023-04-16T01:44:52.977Z,7.94
2023-04-16T01:47:21.811Z,7.97
2023-04-16T01:49:50.700Z,7.97
2023-04-16T01:52:19.515Z,8.03
2023-04-16T01:54:49.743Z,8.03
2023-04-16T01:57:18.516Z,8.05
2023-04-16T01:59:47.415Z,8.07
2023-04-16T02:02:17.713Z,8.08
2023-04-16T02:04:47.738Z,8.07
2023-04-16T02:07:16.567Z,8.05
2023-04-16T02:09:45.304Z,8.07
2023-04-16T02:12:16.065Z,8.10
2023-04-16T02:14:45.012Z,8.07
2023-04-16T02:17:17.425Z,8.05
2023-04-16T02:19:48.094Z,8.06
2023-04-16T02:22:17.361Z,8.09
2023-04-16T02:24:46.182Z,8.11
2023-04-16T02:27:16.746Z,8.11
2023-04-16T02:29:45.699Z,8.13
2023-04-16T02:32:18.489Z,8.12
2023-04-16T02:34:48.879Z,8.10
2023-04-16T02:37:18.359Z,8.11
2023-04-16T02:39:47.617Z,8.07
2023-04-16T02:42:17.958Z,8.10
2023-04-16T02:44:46.774Z,8.09
2023-04-16T02:47:15.718Z,8.11
2023-04-16T02:49:44.641Z,8.13
2023-04-16T02:52:14.912Z,7.92
2023-04-16T02:54:44.671Z,8.07
2023-04-16T02:57:13.477Z,8.08
2023-04-16T02:59:43.683Z,8.09
2023-04-16T03:02:14.253Z,8.05
2023-04-16T03:04:43.235Z,8.06
2023-04-16T03:07:13.248Z,8.04
2023-04-16T03:09:42.167Z,8.00
2023-04-16T03:12:10.920Z,8.01
2023-04-16T03:14:40.290Z,7.96
2023-04-16T03:17:10.401Z,7.92
2023-04-16T03:19:39.667Z,7.88
2023-04-16T03:22:08.352Z,7.85
2023-04-16T03:24:38.462Z,7.83
2023-04-16T03:27:07.388Z,7.81
2023-04-16T03:29:38.338Z,7.76
2023-04-16T03:32:13.012Z,7.74
2023-04-16T03:34:41.863Z,7.68
2023-04-16T03:37:12.314Z,7.65
2023-04-16T03:39:41.303Z,7.64
2023-04-16T03:42:12.852Z,7.65
2023-04-16T03:44:41.803Z,7.63
2023-04-16T03:47:12.991Z,7.61
2023-04-16T03:49:41.951Z,7.59
2023-04-16T03:52:11.683Z,7.60
2023-04-16T03:54:40.553Z,7.61
2023-04-16T03:57:20.791Z,7.62
2023-04-16T03:59:50.259Z,7.62
2023-04-16T04:02:21.892Z,7.65
2023-04-16T04:04:50.907Z,7.68
2023-04-16T04:07:19.972Z,7.71
2023-04-16T04:09:49.195Z,7.69
2023-04-16T04:12:17.894Z,7.74
2023-04-16T04:14:48.082Z,7.76
2023-04-16T04:17:16.986Z,7.77
2023-04-16T04:19:58.159Z,7.80
2023-04-16T04:22:30.955Z,7.80
2023-04-16T04:24:59.868Z,7.78
2023-04-16T04:27:31.546Z,7.79
2023-04-16T04:30:00.547Z,7.80
2023-04-16T04:32:29.628Z,7.79
2023-04-16T04:35:01.570Z,7.78
2023-04-16T04:37:30.482Z,7.80
2023-04-16T04:39:59.396Z,7.80
2023-04-16T04:42:28.513Z,7.78
2023-04-16T04:44:57.631Z,7.79
2023-04-16T04:47:27.305Z,7.84
2023-04-16T04:49:56.054Z,7.89
2023-04-16T04:52:26.664Z,7.98
2023-04-16T04:54:55.595Z,8.13
2023-04-16T04:57:24.374Z,8.26
2023-04-16T04:59:56.545Z,8.35
2023-04-16T05:02:26.664Z,8.45
2023-04-16T05:04:55.373Z,8.53
2023-04-16T05:07:25.525Z,8.65
2023-04-16T05:09:54.511Z,8.71
2023-04-16T05:12:23.256Z,8.75
2023-04-16T05:14:52.929Z,8.81
2023-04-16T05:17:21.951Z,8.78
2023-04-16T05:19:50.684Z,8.79
2023-04-16T05:22:20.707Z,8.86
2023-04-16T05:24:50.932Z,9.00
2023-04-16T05:27:19.728Z,9.01
2023-04-16T05:29:48.398Z,9.05
2023-04-16T05:32:17.297Z,9.16
2023-04-16T05:34:46.035Z,9.10
2023-04-16T05:37:14.993Z,9.25
2023-04-16T05:39:43.720Z,9.42
2023-04-16T05:42:13.992Z,9.61
2023-04-16T05:44:42.722Z,9.71
2023-04-16T05:47:11.512Z,9.74
2023-04-16T05:49:40.210Z,9.80
2023-04-16T05:52:08.786Z,9.82
2023-04-16T05:54:37.843Z,9.85
2023-04-16T05:57:06.543Z,9.86
2023-04-16T05:59:37.414Z,9.86
2023-04-16T06:02:06.168Z,9.89
2023-04-16T06:04:36.258Z,9.92
2023-04-16T06:07:05.112Z,9.90
2023-04-16T06:09:33.872Z,9.88
2023-04-16T06:12:02.573Z,9.97
2023-04-16T06:14:31.306Z,10.04
2023-04-16T06:17:01.611Z,10.12
2023-04-16T06:19:30.286Z,10.10
2023-04-16T06:21:59.161Z,10.03
2023-04-16T06:24:27.925Z,9.93
2023-04-16T06:26:57.628Z,9.97
2023-04-16T06:29:37.071Z,10.01
2023-04-16T06:32:11.234Z,10.08
2023-04-16T06:34:40.334Z,10.23
2023-04-16T06:37:10.636Z,10.25
2023-04-16T06:39:39.674Z,10.33
2023-04-16T06:42:08.377Z,10.41
2023-04-16T06:44:37.460Z,10.43
2023-04-16T06:47:06.157Z,10.47
2023-04-16T06:49:36.336Z,10.39
2023-04-16T06:52:05.925Z,10.37
2023-04-16T06:54:34.976Z,10.56
2023-04-16T06:57:03.587Z,10.74
2023-04-16T06:59:32.872Z,10.74
2023-04-16T07:02:03.047Z,10.78
2023-04-16T07:04:31.950Z,10.96
2023-04-16T07:07:02.316Z,11.11
2023-04-16T07:09:31.259Z,11.20
2023-04-16T07:11:59.976Z,11.30
2023-04-16T07:14:28.731Z,11.33
2023-04-16T07:16:57.382Z,11.52
2023-04-16T07:19:30.625Z,11.61
2023-04-16T07:21:59.594Z,11.62
2023-04-16T07:24:29.798Z,11.62
2023-04-16T07:26:58.473Z,11.77
2023-04-16T07:29:27.366Z,11.97
2023-04-16T07:31:56.186Z,12.22
2023-04-16T07:34:24.989Z,12.44
2023-04-16T07:36:53.746Z,12.62
2023-04-16T07:39:22.428Z,12.63
2023-04-16T07:41:52.541Z,12.71
2023-04-16T07:44:21.297Z,12.93
2023-04-16T07:46:50.040Z,13.05
2023-04-16T07:49:18.897Z,13.17
2023-04-16T07:51:47.643Z,13.13
2023-04-16T07:54:16.363Z,13.18
2023-04-16T07:56:45.258Z,13.39
2023-04-16T07:59:22.982Z,13.52
2023-04-16T08:01:55.180Z,13.35
2023-04-16T08:04:26.474Z,13.48
2023-04-16T08:06:55.484Z,13.64
2023-04-16T08:09:25.709Z,13.72
2023-04-16T08:11:54.411Z,13.81
2023-04-16T08:14:24.464Z,13.86
2023-04-16T08:16:53.260Z,14.14
2023-04-16T08:19:22.009Z,14.25
2023-04-16T08:21:50.830Z,14.51
2023-04-16T08:24:19.439Z,14.64
2023-04-16T08:26:48.347Z,14.51
2023-04-16T08:29:16.948Z,14.33
2023-04-16T08:31:47.335Z,14.28
2023-04-16T08:34:16.263Z,14.09
2023-04-16T08:36:46.130Z,14.09
2023-04-16T08:39:15.051Z,14.13
2023-04-16T08:41:45.363Z,14.07
2023-04-16T08:44:21.649Z,14.05
2023-04-16T08:46:57.395Z,13.98
2023-04-16T08:49:27.520Z,13.97
2023-04-16T08:51:58.150Z,13.97
2023-04-16T08:54:35.536Z,13.88
2023-04-16T08:57:08.011Z,13.91
2023-04-16T08:59:38.570Z,13.91
2023-04-16T09:02:11.463Z,13.98
2023-04-16T09:04:41.819Z,14.15
2023-04-16T09:07:11.905Z,14.63
2023-04-16T09:09:42.626Z,14.97
2023-04-16T09:12:12.447Z,14.92
2023-04-16T09:14:43.204Z,15.21
2023-04-16T09:17:15.504Z,15.42
2023-04-16T09:19:44.414Z,15.38
2023-04-16T09:22:13.290Z,15.65
2023-04-16T09:24:42.152Z,15.58
2023-04-16T09:27:11.264Z,15.69
2023-04-16T09:29:41.899Z,15.69
2023-04-16T09:32:13.223Z,15.62
2023-04-16T09:34:57.445Z,15.88
2023-04-16T09:37:27.028Z,16.07
2023-04-16T09:39:57.852Z,16.26
2023-04-16T09:42:28.929Z,15.98
2023-04-16T09:45:00.030Z,15.68
2023-04-16T09:47:42.803Z,15.79
2023-04-16T09:50:18.262Z,16.00
2023-04-16T09:52:51.873Z,16.06
2023-04-16T09:55:25.043Z,15.92
2023-04-16T09:58:01.400Z,15.60
2023-04-16T10:00:31.751Z,15.48
2023-04-16T10:03:08.257Z,15.37
2023-04-16T10:05:37.177Z,15.50
2023-04-16T10:08:13.171Z,15.78
2023-04-16T10:10:42.908Z,16.04
2023-04-16T10:13:12.894Z,16.18
2023-04-16T10:15:42.108Z,16.33
2023-04-16T10:18:12.481Z,16.34
2023-04-16T10:20:41.672Z,16.27
2023-04-16T10:23:10.888Z,16.06
2023-04-16T10:25:40.456Z,15.92
2023-04-16T10:28:10.684Z,15.90
2023-04-16T10:30:40.010Z,15.83
2023-04-16T10:33:09.431Z,15.70
2023-04-16T10:35:42.401Z,15.74
2023-04-16T10:38:24.443Z,15.95
2023-04-16T10:41:00.680Z,16.33
2023-04-16T10:43:31.661Z,16.57
2023-04-16T10:46:19.699Z,16.70
2023-04-16T10:48:50.082Z,16.62
2023-04-16T10:51:32.378Z,16.52
2023-04-16T10:54:06.015Z,16.36
2023-04-16T10:56:35.743Z,16.28
2023-04-16T10:59:08.873Z,16.23
2023-04-16T11:01:39.981Z,16.14
2023-04-16T11:04:31.275Z,16.06
2023-04-16T11:07:09.484Z,16.09
2023-04-16T11:09:56.816Z,16.10
2023-04-16T11:12:27.852Z,16.14
2023-04-16T11:15:01.149Z,16.16
2023-04-16T11:17:33.869Z,16.07
2023-04-16T11:20:03.174Z,16.01
2023-04-16T11:22:36.751Z,16.14
2023-04-16T11:25:06.176Z,16.16
2023-04-16T11:27:34.936Z,16.35
2023-04-16T11:30:05.892Z,16.36
2023-04-16T11:32:36.466Z,16.26
2023-04-16T11:35:14.321Z,16.14
2023-04-16T11:37:44.624Z,16.14
2023-04-16T11:40:14.200Z,16.18
2023-04-16T11:42:44.717Z,16.20
2023-04-16T11:45:14.226Z,16.08
2023-04-16T11:47:51.971Z,16.20
2023-04-16T11:50:23.060Z,16.29
2023-04-16T11:52:55.037Z,16.32
2023-04-16T11:55:24.902Z,16.26
2023-04-16T11:57:53.663Z,16.29
2023-04-16T12:00:24.911Z,16.29
2023-04-16T12:02:54.944Z,16.32
2023-04-16T12:05:32.413Z,16.29
2023-04-16T12:08:04.307Z,16.36
2023-04-16T12:10:36.570Z,16.40
2023-04-16T12:13:13.799Z,16.32
2023-04-16T12:15:47.397Z,16.39
2023-04-16T12:18:16.593Z,16.37
2023-04-16T12:20:46.112Z,16.47
2023-04-16T12:23:25.651Z,16.55
2023-04-16T12:25:54.399Z,16.54
2023-04-16T12:28:31.184Z,16.51
2023-04-16T12:31:00.368Z,16.48
2023-04-16T12:33:29.217Z,16.51
2023-04-16T12:35:58.260Z,16.48
2023-04-16T12:38:28.925Z,16.58
2023-04-16T12:40:58.557Z,16.69
2023-04-16T12:43:27.763Z,16.73
2023-04-16T12:45:56.486Z,16.77
2023-04-16T12:48:25.413Z,16.72
2023-04-16T12:50:55.270Z,16.68
2023-04-16T12:53:24.407Z,16.64
2023-04-16T12:55:54.741Z,16.57
2023-04-16T12:58:23.430Z,16.47
2023-04-16T13:00:52.023Z,16.33
2023-04-16T13:03:22.326Z,16.31
2023-04-16T13:05:51.306Z,16.30
2023-04-16T13:08:19.946Z,16.20
2023-04-16T13:10:48.686Z,16.17
2023-04-16T13:13:18.848Z,16.14
2023-04-16T13:15:47.541Z,16.02
2023-04-16T13:18:16.798Z,16.02
2023-04-16T13:20:45.506Z,16.02
2023-04-16T13:23:14.456Z,16.01
2023-04-16T13:25:43.185Z,16.01
2023-04-16T13:28:12.069Z,16.01
2023-04-16T13:30:42.337Z,15.95
2023-04-16T13:33:12.354Z,16.02
2023-04-16T13:35:41.286Z,16.07
2023-04-16T13:38:10.025Z,16.19
2023-04-16T13:40:39.388Z,16.30
2023-04-16T13:43:08.146Z,16.42
2023-04-16T13:45:36.882Z,16.58
2023-04-16T13:48:07.371Z,16.62
2023-04-16T13:50:36.496Z,16.57
2023-04-16T13:53:05.292Z,16.55
2023-04-16T13:55:34.131Z,16.59
2023-04-16T13:58:02.961Z,16.64
2023-04-16T14:00:31.814Z,16.59
2023-04-16T14:03:00.844Z,16.55
2023-04-16T14:05:31.375Z,16.55
2023-04-16T14:08:00.170Z,16.52
2023-04-16T14:10:29.023Z,16.41
2023-04-16T14:12:59.070Z,16.45
2023-04-16T14:15:30.334Z,16.45
2023-04-16T14:17:59.285Z,16.40
2023-04-16T14:20:28.000Z,16.28
2023-04-16T14:22:58.366Z,16.19
2023-04-16T14:25:27.314Z,16.22
2023-04-16T14:27:56.239Z,16.20
2023-04-16T14:30:25.067Z,16.18
2023-04-16T14:32:53.903Z,16.21
2023-04-16T14:35:22.772Z,16.22
2023-04-16T14:37:51.636Z,16.13
2023-04-16T14:40:22.039Z,16.05
2023-04-16T14:42:50.996Z,15.96
2023-04-16T14:45:20.063Z,15.91
2023-04-16T14:47:50.048Z,15.90
2023-04-16T14:50:19.021Z,15.84
2023-04-16T14:52:47.972Z,15.80
2023-04-16T14:55:16.813Z,15.75
2023-04-16T14:57:46.949Z,15.67
2023-04-16T15:00:19.173Z,15.59
2023-04-16T15:02:48.550Z,15.53
2023-04-16T15:05:17.510Z,15.49
2023-04-16T15:07:46.343Z,15.44
2023-04-16T15:10:15.343Z,15.38
2023-04-16T15:12:44.288Z,15.35
2023-04-16T15:15:14.555Z,15.30
2023-04-16T15:17:44.728Z,15.25
2023-04-16T15:20:14.351Z,15.16
2023-04-16T15:22:43.227Z,15.03
2023-04-16T15:25:12.058Z,14.92
2023-04-16T15:27:40.869Z,14.80
2023-04-16T15:30:10.559Z,14.70
2023-04-16T15:32:40.566Z,14.56
2023-04-16T15:35:11.384Z,14.44
2023-04-16T15:37:41.098Z,14.39
2023-04-16T15:40:10.904Z,14.38
2023-04-16T15:42:41.410Z,14.30
2023-04-16T15:45:10.614Z,14.25
2023-04-16T15:47:41.995Z,14.19
2023-04-16T15:50:11.824Z,14.13
2023-04-16T15:52:41.109Z,14.14
2023-04-16T15:55:10.768Z,14.22
2023-04-16T15:57:39.543Z,14.20
2023-04-16T16:00:14.423Z,14.14
2023-04-16T16:02:47.390Z,14.18
2023-04-16T16:05:17.418Z,14.09
2023-04-16T16:07:46.603Z,14.09
2023-04-16T16:10:15.358Z,14.10
2023-04-16T16:12:44.172Z,14.03
2023-04-16T16:15:12.969Z,13.96
2023-04-16T16:17:41.948Z,13.81
2023-04-16T16:20:13.082Z,13.75
2023-04-16T16:22:45.528Z,13.67
2023-04-16T16:25:14.535Z,13.58
2023-04-16T16:27:43.220Z,13.52
2023-04-16T16:30:12.948Z,13.55
2023-04-16T16:32:43.860Z,13.55
2023-04-16T16:35:14.265Z,13.56
2023-04-16T16:37:43.537Z,13.56
2023-04-16T16:40:12.843Z,13.55
2023-04-16T16:42:42.427Z,13.54
2023-04-16T16:45:12.346Z,13.55
2023-04-16T16:47:41.257Z,13.54
2023-04-16T16:50:11.609Z,13.56
2023-04-16T16:52:42.038Z,13.53
2023-04-16T16:55:11.346Z,13.47
2023-04-16T16:57:40.083Z,13.30
2023-04-16T17:00:14.654Z,13.29
2023-04-16T17:02:44.405Z,13.26
2023-04-16T17:05:13.984Z,13.24
2023-04-16T17:07:44.222Z,13.17
2023-04-16T17:10:20.332Z,13.27
2023-04-16T17:12:50.700Z,13.24
2023-04-16T17:15:21.763Z,13.22
2023-04-16T17:17:50.768Z,13.23
2023-04-16T17:20:20.949Z,13.23
2023-04-16T17:22:51.361Z,13.21
2023-04-16T17:25:20.347Z,13.16
2023-04-16T17:27:49.091Z,13.10
2023-04-16T17:30:18.704Z,13.06
2023-04-16T17:32:47.572Z,13.00
2023-04-16T17:35:16.553Z,12.88
2023-04-16T17:37:45.226Z,12.88
2023-04-16T17:40:18.400Z,12.84
2023-04-16T17:42:47.298Z,12.82
2023-04-16T17:45:16.172Z,12.77
2023-04-16T17:47:45.606Z,12.76
2023-04-16T17:50:14.319Z,12.75
2023-04-16T17:52:43.095Z,12.74
2023-04-16T17:55:13.468Z,12.73
2023-04-16T17:57:45.112Z,12.68
2023-04-16T18:00:14.788Z,12.60
2023-04-16T18:02:44.092Z,12.63
2023-04-16T18:05:13.002Z,12.58
2023-04-16T18:07:41.762Z,12.56
2023-04-16T18:10:11.573Z,12.53
2023-04-16T18:12:40.640Z,12.52
2023-04-16T18:15:12.231Z,12.50
2023-04-16T18:17:43.902Z,12.49
2023-04-16T18:20:16.911Z,12.45
2023-04-16T18:22:45.891Z,12.45
2023-04-16T18:25:14.642Z,12.45
2023-04-16T18:27:43.434Z,12.39
2023-04-16T18:33:09.918Z,12.29
2023-04-16T18:35:36.272Z,12.24
2023-04-16T18:38:05.753Z,12.27
2023-04-16T18:40:36.333Z,12.26
2023-04-16T18:43:05.283Z,12.26
2023-04-16T18:45:36.430Z,12.28
2023-04-16T18:48:05.437Z,12.25
2023-04-16T18:50:34.468Z,12.23
2023-04-16T18:53:03.707Z,12.17
2023-04-16T18:55:32.420Z,12.18
2023-04-16T18:58:01.578Z,12.15
2023-04-16T19:00:30.708Z,12.08
2023-04-16T19:03:01.065Z,12.01
2023-04-16T19:05:30.292Z,11.96
2023-04-16T19:07:59.331Z,11.96
2023-04-16T19:10:28.173Z,11.98
2023-04-16T19:12:58.144Z,11.98
2023-04-16T19:15:29.226Z,12.02
2023-04-16T19:18:01.788Z,12.01
2023-04-16T19:20:30.848Z,12.02
2023-04-16T19:22:59.897Z,12.00
2023-04-16T19:25:29.155Z,11.92
2023-04-16T19:27:57.920Z,11.86
2023-04-16T19:30:26.691Z,11.87
2023-04-16T19:32:55.716Z,11.84
2023-04-16T19:35:27.259Z,11.82
2023-04-16T19:37:56.752Z,11.83
2023-04-16T19:40:25.580Z,11.85
2023-04-16T19:42:55.052Z,11.83
2023-04-16T19:45:26.192Z,11.87
2023-04-16T19:47:55.093Z,11.87
2023-04-16T19:50:25.290Z,11.87
2023-04-16T19:52:54.125Z,11.86
2023-04-16T19:55:22.910Z,11.84
2023-04-16T19:57:51.803Z,11.79
2023-04-16T20:00:21.158Z,11.79
2023-04-16T20:02:50.169Z,11.73
2023-04-16T20:05:19.207Z,11.70
2023-04-16T20:07:52.048Z,11.69
2023-04-16T20:10:22.557Z,11.64
2023-04-16T20:12:51.739Z,11.65
2023-04-16T20:15:20.588Z,11.63
2023-04-16T20:17:50.280Z,11.54
2023-04-16T20:20:18.791Z,11.53
2023-04-16T20:22:47.587Z,11.50
2023-04-16T20:25:19.375Z,11.44
2023-04-16T20:27:48.368Z,11.40
2023-04-16T20:30:18.024Z,11.39
2023-04-16T20:32:46.609Z,11.39
2023-04-16T20:35:15.619Z,11.37
2023-04-16T20:37:44.651Z,11.32
2023-04-16T20:40:14.256Z,11.26
2023-04-16T20:42:46.748Z,11.24
2023-04-16T20:45:15.698Z,11.23
2023-04-16T20:47:44.769Z,11.21
2023-04-16T20:50:13.969Z,11.18
2023-04-16T20:52:43.527Z,11.15
2023-04-16T20:55:11.960Z,11.11
2023-04-16T20:57:40.775Z,11.08
2023-04-16T21:00:12.587Z,11.03
2023-04-16T21:02:41.533Z,10.99
2023-04-16T21:05:14.441Z,10.96
2023-04-16T21:07:43.285Z,10.84
2023-04-16T21:10:12.663Z,10.83
2023-04-16T21:12:41.504Z,10.78
2023-04-16T21:15:12.512Z,10.73
2023-04-16T21:17:41.397Z,10.71
2023-04-16T21:20:13.707Z,10.66
2023-04-16T21:22:42.552Z,10.63
2023-04-16T21:25:11.851Z,10.60
2023-04-16T21:27:40.696Z,10.55
2023-04-16T21:30:12.580Z,10.54
2023-04-16T21:32:41.805Z,10.51
2023-04-16T21:35:11.448Z,10.54
2023-04-16T21:37:39.885Z,10.52
2023-04-16T21:40:09.542Z,10.49
2023-04-16T21:42:40.141Z,10.48
2023-04-16T21:45:10.088Z,10.45
2023-04-16T21:47:40.489Z,10.37
2023-04-16T21:50:10.278Z,10.41
2023-04-16T21:52:46.934Z,10.36
2023-04-16T21:55:15.755Z,10.34
2023-04-16T21:57:44.492Z,10.30
2023-04-16T22:00:14.470Z,10.24
2023-04-16T22:02:44.861Z,10.24
2023-04-16T22:05:13.859Z,10.21
2023-04-16T22:07:42.725Z,10.19
2023-04-16T22:10:13.715Z,10.14
2023-04-16T22:12:45.156Z,10.11
2023-04-16T22:15:15.860Z,10.04
2023-04-16T22:17:47.259Z,9.92
2023-04-16T22:20:16.699Z,9.90
2023-04-16T22:22:45.706Z,9.84
2023-04-16T22:25:14.632Z,9.76
2023-04-16T22:27:43.327Z,9.70
2023-04-16T22:30:13.379Z,9.65
2023-04-16T22:32:42.204Z,9.66
2023-04-16T22:35:12.864Z,9.67
2023-04-16T22:37:41.605Z,9.64
2023-04-16T22:40:11.968Z,9.61
2023-04-16T22:42:40.794Z,9.48
2023-04-16T22:45:10.169Z,9.37
2023-04-16T22:47:39.425Z,9.35
2023-04-16T22:50:11.181Z,9.40
2023-04-16T22:52:41.528Z,9.37
2023-04-16T22:55:10.961Z,9.35
2023-04-16T22:57:39.957Z,9.29
2023-04-16T23:00:16.067Z,9.26
2023-04-16T23:02:45.740Z,9.17
2023-04-16T23:05:14.382Z,9.15
2023-04-16T23:07:44.566Z,9.13
2023-04-16T23:10:13.426Z,9.07
2023-04-16T23:12:42.100Z,8.99
2023-04-16T23:15:40.362Z,9.09
2023-04-16T23:18:09.157Z,9.08
2023-04-16T23:20:37.953Z,9.09
2023-04-16T23:23:08.261Z,9.06
2023-04-16T23:25:37.045Z,9.01
2023-04-16T23:28:05.920Z,8.97
2023-04-16T23:30:34.712Z,9.00
2023-04-16T23:33:04.701Z,9.00
2023-04-16T23:35:33.558Z,8.96
2023-04-16T23:38:02.323Z,8.90
2023-04-16T23:40:32.571Z,8.86
2023-04-16T23:43:01.282Z,8.85
2023-04-16T23:45:30.252Z,8.88
2023-04-16T23:47:58.997Z,8.90
2023-04-16T23:50:28.192Z,8.90
2023-04-16T23:52:57.394Z,8.86
2023-04-16T23:55:26.706Z,8.91
2023-04-16T23:57:56.908Z,8.88
